sensor_id;sensor_type;location;lat;lon;timestamp;P1;durP1;ratioP1;P2;durP2;ratioP2
16137;SDS011;8174;43.550;5.206;2022-09-13T00:02:24;9.43;;;6.70;;
16137;SDS011;8174;43.550;5.206;2022-09-13T00:04:53;13.07;;;7.20;;
16137;SDS011;8174;43.550;5.206;2022-09-13T00:07:21;10.93;;;6.97;;
16137;SDS011;8174;43.550;5.206;2022-09-13T00:09:48;11.80;;;7.07;;
16137;SDS011;8174;43.550;5.206;2022-09-13T00:12:16;11.18;;;7.68;;
16137;SDS011;8174;43.550;5.206;2022-09-13T00:14:44;14.80;;;7.38;;
16137;SDS011;8174;43.550;5.206;2022-09-13T00:17:12;13.95;;;8.65;;
16137;SDS011;8174;43.550;5.206;2022-09-13T00:19:40;18.65;;;8.18;;
16137;SDS011;8174;43.550;5.206;2022-09-13T00:22:09;18.13;;;8.27;;
16137;SDS011;8174;43.550;5.206;2022-09-13T00:24:36;12.98;;;7.95;;
16137;SDS011;8174;43.550;5.206;2022-09-13T00:27:04;11.27;;;7.65;;
16137;SDS011;8174;43.550;5.206;2022-09-13T00:29:31;13.02;;;8.05;;
16137;SDS011;8174;43.550;5.206;2022-09-13T00:31:59;9.02;;;7.90;;
16137;SDS011;8174;43.550;5.206;2022-09-13T00:34:27;12.20;;;7.90;;
16137;SDS011;8174;43.550;5.206;2022-09-13T00:36:54;11.18;;;8.13;;
16137;SDS011;8174;43.550;5.206;2022-09-13T00:39:23;10.52;;;7.65;;
16137;SDS011;8174;43.550;5.206;2022-09-13T00:41:51;11.70;;;8.38;;
16137;SDS011;8174;43.550;5.206;2022-09-13T00:47:04;10.45;;;7.22;;
16137;SDS011;8174;43.550;5.206;2022-09-13T00:49:32;13.77;;;7.80;;
16137;SDS011;8174;43.550;5.206;2022-09-13T00:52:03;10.27;;;7.43;;
16137;SDS011;8174;43.550;5.206;2022-09-13T00:54:33;10.07;;;7.63;;
16137;SDS011;8174;43.550;5.206;2022-09-13T00:57:04;9.48;;;7.50;;
16137;SDS011;8174;43.550;5.206;2022-09-13T00:59:33;11.50;;;7.65;;
16137;SDS011;8174;43.550;5.206;2022-09-13T01:02:02;9.40;;;7.10;;
16137;SDS011;8174;43.550;5.206;2022-09-13T01:04:31;11.93;;;7.97;;
16137;SDS011;8174;43.550;5.206;2022-09-13T01:07:00;14.07;;;8.35;;
16137;SDS011;8174;43.550;5.206;2022-09-13T01:09:28;16.35;;;8.80;;
16137;SDS011;8174;43.550;5.206;2022-09-13T01:11:59;12.55;;;8.13;;
16137;SDS011;8174;43.550;5.206;2022-09-13T01:14:28;11.73;;;7.63;;
16137;SDS011;8174;43.550;5.206;2022-09-13T01:16:56;13.35;;;8.88;;
16137;SDS011;8174;43.550;5.206;2022-09-13T01:19:24;9.98;;;7.70;;
16137;SDS011;8174;43.550;5.206;2022-09-13T01:22:06;10.98;;;8.52;;
16137;SDS011;8174;43.550;5.206;2022-09-13T01:24:53;10.57;;;7.45;;
16137;SDS011;8174;43.550;5.206;2022-09-13T01:27:29;12.95;;;7.55;;
16137;SDS011;8174;43.550;5.206;2022-09-13T01:30:07;9.25;;;6.60;;
16137;SDS011;8174;43.550;5.206;2022-09-13T01:32:39;8.88;;;7.03;;
16137;SDS011;8174;43.550;5.206;2022-09-13T01:35:13;14.05;;;6.90;;
16137;SDS011;8174;43.550;5.206;2022-09-13T01:37:49;10.02;;;6.65;;
16137;SDS011;8174;43.550;5.206;2022-09-13T01:40:21;14.70;;;6.57;;
16137;SDS011;8174;43.550;5.206;2022-09-13T01:43:04;12.02;;;6.15;;
16137;SDS011;8174;43.550;5.206;2022-09-13T01:45:37;8.18;;;7.13;;
16137;SDS011;8174;43.550;5.206;2022-09-13T01:48:07;9.32;;;6.20;;
16137;SDS011;8174;43.550;5.206;2022-09-13T01:50:39;8.68;;;5.93;;
16137;SDS011;8174;43.550;5.206;2022-09-13T01:53:10;11.20;;;6.80;;
16137;SDS011;8174;43.550;5.206;2022-09-13T01:55:45;11.55;;;6.30;;
16137;SDS011;8174;43.550;5.206;2022-09-13T01:58:19;10.65;;;6.00;;
16137;SDS011;8174;43.550;5.206;2022-09-13T02:00:53;9.57;;;6.22;;
16137;SDS011;8174;43.550;5.206;2022-09-13T02:03:24;8.18;;;6.15;;
16137;SDS011;8174;43.550;5.206;2022-09-13T02:05:54;7.50;;;5.45;;
16137;SDS011;8174;43.550;5.206;2022-09-13T02:08:24;10.38;;;5.65;;
16137;SDS011;8174;43.550;5.206;2022-09-13T02:10:54;7.57;;;5.60;;
16137;SDS011;8174;43.550;5.206;2022-09-13T02:13:23;7.88;;;5.70;;
16137;SDS011;8174;43.550;5.206;2022-09-13T02:15:54;8.20;;;6.32;;
16137;SDS011;8174;43.550;5.206;2022-09-13T02:18:24;7.97;;;6.40;;
16137;SDS011;8174;43.550;5.206;2022-09-13T02:20:56;7.72;;;6.28;;
16137;SDS011;8174;43.550;5.206;2022-09-13T02:23:28;11.70;;;5.88;;
16137;SDS011;8174;43.550;5.206;2022-09-13T02:25:58;9.75;;;6.10;;
16137;SDS011;8174;43.550;5.206;2022-09-13T02:28:27;9.32;;;6.10;;
16137;SDS011;8174;43.550;5.206;2022-09-13T02:30:57;9.07;;;6.57;;
16137;SDS011;8174;43.550;5.206;2022-09-13T02:33:26;9.60;;;6.20;;
16137;SDS011;8174;43.550;5.206;2022-09-13T02:35:56;11.50;;;6.65;;
16137;SDS011;8174;43.550;5.206;2022-09-13T02:38:26;8.15;;;7.00;;
16137;SDS011;8174;43.550;5.206;2022-09-13T02:40:56;12.63;;;7.13;;
16137;SDS011;8174;43.550;5.206;2022-09-13T02:43:26;12.18;;;6.88;;
16137;SDS011;8174;43.550;5.206;2022-09-13T02:45:59;10.82;;;6.82;;
16137;SDS011;8174;43.550;5.206;2022-09-13T02:48:33;10.48;;;7.45;;
16137;SDS011;8174;43.550;5.206;2022-09-13T02:51:04;10.07;;;7.35;;
16137;SDS011;8174;43.550;5.206;2022-09-13T02:53:35;11.23;;;7.53;;
16137;SDS011;8174;43.550;5.206;2022-09-13T02:56:08;7.15;;;6.45;;
16137;SDS011;8174;43.550;5.206;2022-09-13T02:58:38;10.48;;;6.70;;
16137;SDS011;8174;43.550;5.206;2022-09-13T03:01:10;9.13;;;6.30;;
16137;SDS011;8174;43.550;5.206;2022-09-13T03:03:37;14.00;;;6.60;;
16137;SDS011;8174;43.550;5.206;2022-09-13T03:06:05;10.52;;;6.20;;
16137;SDS011;8174;43.550;5.206;2022-09-13T03:08:32;6.40;;;5.68;;
16137;SDS011;8174;43.550;5.206;2022-09-13T03:11:03;15.05;;;6.30;;
16137;SDS011;8174;43.550;5.206;2022-09-13T03:13:39;8.55;;;6.32;;
16137;SDS011;8174;43.550;5.206;2022-09-13T03:16:21;9.65;;;6.53;;
16137;SDS011;8174;43.550;5.206;2022-09-13T03:18:53;10.50;;;6.18;;
16137;SDS011;8174;43.550;5.206;2022-09-13T03:21:26;8.63;;;5.63;;
16137;SDS011;8174;43.550;5.206;2022-09-13T03:24:00;10.07;;;5.97;;
16137;SDS011;8174;43.550;5.206;2022-09-13T03:26:35;7.57;;;5.40;;
16137;SDS011;8174;43.550;5.206;2022-09-13T03:29:09;10.73;;;6.00;;
16137;SDS011;8174;43.550;5.206;2022-09-13T03:31:41;8.20;;;5.90;;
16137;SDS011;8174;43.550;5.206;2022-09-13T03:34:13;7.30;;;5.68;;
16137;SDS011;8174;43.550;5.206;2022-09-13T03:36:42;11.07;;;5.68;;
16137;SDS011;8174;43.550;5.206;2022-09-13T03:39:11;9.77;;;5.65;;
16137;SDS011;8174;43.550;5.206;2022-09-13T03:41:41;8.52;;;5.13;;
16137;SDS011;8174;43.550;5.206;2022-09-13T03:44:09;8.43;;;6.05;;
16137;SDS011;8174;43.550;5.206;2022-09-13T03:46:40;8.57;;;6.00;;
16137;SDS011;8174;43.550;5.206;2022-09-13T03:49:10;10.93;;;5.85;;
16137;SDS011;8174;43.550;5.206;2022-09-13T03:51:39;9.77;;;5.95;;
16137;SDS011;8174;43.550;5.206;2022-09-13T03:54:07;7.90;;;5.70;;
16137;SDS011;8174;43.550;5.206;2022-09-13T03:56:38;11.15;;;6.22;;
16137;SDS011;8174;43.550;5.206;2022-09-13T03:59:06;9.77;;;5.43;;
16137;SDS011;8174;43.550;5.206;2022-09-13T04:01:33;8.27;;;5.22;;
16137;SDS011;8174;43.550;5.206;2022-09-13T04:04:03;6.35;;;4.97;;
16137;SDS011;8174;43.550;5.206;2022-09-13T04:06:30;6.28;;;5.07;;
16137;SDS011;8174;43.550;5.206;2022-09-13T04:08:58;6.88;;;5.22;;
16137;SDS011;8174;43.550;5.206;2022-09-13T04:11:26;8.10;;;5.32;;
16137;SDS011;8174;43.550;5.206;2022-09-13T04:13:56;8.27;;;5.07;;
16137;SDS011;8174;43.550;5.206;2022-09-13T04:16:23;6.28;;;4.68;;
16137;SDS011;8174;43.550;5.206;2022-09-13T04:18:51;6.20;;;5.13;;
16137;SDS011;8174;43.550;5.206;2022-09-13T04:21:20;12.23;;;5.10;;
16137;SDS011;8174;43.550;5.206;2022-09-13T04:23:48;9.23;;;5.53;;
16137;SDS011;8174;43.550;5.206;2022-09-13T04:26:16;11.25;;;5.15;;
16137;SDS011;8174;43.550;5.206;2022-09-13T04:28:43;10.10;;;5.35;;
16137;SDS011;8174;43.550;5.206;2022-09-13T04:31:11;10.88;;;5.55;;
16137;SDS011;8174;43.550;5.206;2022-09-13T04:33:39;13.52;;;5.15;;
16137;SDS011;8174;43.550;5.206;2022-09-13T04:36:06;6.50;;;5.18;;
16137;SDS011;8174;43.550;5.206;2022-09-13T04:38:35;9.32;;;5.20;;
16137;SDS011;8174;43.550;5.206;2022-09-13T04:41:03;10.23;;;5.43;;
16137;SDS011;8174;43.550;5.206;2022-09-13T04:43:31;9.68;;;4.95;;
16137;SDS011;8174;43.550;5.206;2022-09-13T04:45:59;11.77;;;5.22;;
16137;SDS011;8174;43.550;5.206;2022-09-13T04:48:27;7.82;;;4.90;;
16137;SDS011;8174;43.550;5.206;2022-09-13T04:50:59;10.55;;;5.18;;
16137;SDS011;8174;43.550;5.206;2022-09-13T04:53:28;9.68;;;4.97;;
16137;SDS011;8174;43.550;5.206;2022-09-13T04:56:00;7.93;;;4.72;;
16137;SDS011;8174;43.550;5.206;2022-09-13T04:58:27;7.47;;;5.18;;
16137;SDS011;8174;43.550;5.206;2022-09-13T05:00:59;10.75;;;5.50;;
16137;SDS011;8174;43.550;5.206;2022-09-13T05:06:31;8.05;;;5.00;;
16137;SDS011;8174;43.550;5.206;2022-09-13T05:08:58;11.20;;;5.40;;
16137;SDS011;8174;43.550;5.206;2022-09-13T05:11:27;9.57;;;5.60;;
16137;SDS011;8174;43.550;5.206;2022-09-13T05:13:56;7.80;;;5.57;;
16137;SDS011;8174;43.550;5.206;2022-09-13T05:16:24;8.10;;;5.60;;
16137;SDS011;8174;43.550;5.206;2022-09-13T05:18:52;10.05;;;5.38;;
16137;SDS011;8174;43.550;5.206;2022-09-13T05:21:20;15.40;;;5.45;;
16137;SDS011;8174;43.550;5.206;2022-09-13T05:23:48;11.10;;;5.13;;
16137;SDS011;8174;43.550;5.206;2022-09-13T05:26:16;9.48;;;5.20;;
16137;SDS011;8174;43.550;5.206;2022-09-13T05:28:45;10.60;;;4.97;;
16137;SDS011;8174;43.550;5.206;2022-09-13T05:31:15;14.52;;;6.75;;
16137;SDS011;8174;43.550;5.206;2022-09-13T05:33:43;9.55;;;5.13;;
16137;SDS011;8174;43.550;5.206;2022-09-13T05:36:11;8.32;;;4.80;;
16137;SDS011;8174;43.550;5.206;2022-09-13T05:38:38;11.18;;;4.75;;
16137;SDS011;8174;43.550;5.206;2022-09-13T05:41:05;8.48;;;4.65;;
16137;SDS011;8174;43.550;5.206;2022-09-13T05:43:34;9.60;;;5.00;;
16137;SDS011;8174;43.550;5.206;2022-09-13T05:46:04;14.00;;;5.60;;
16137;SDS011;8174;43.550;5.206;2022-09-13T05:48:32;9.63;;;4.70;;
16137;SDS011;8174;43.550;5.206;2022-09-13T05:51:03;10.07;;;4.93;;
16137;SDS011;8174;43.550;5.206;2022-09-13T05:53:31;15.05;;;5.10;;
16137;SDS011;8174;43.550;5.206;2022-09-13T05:55:58;9.32;;;4.72;;
16137;SDS011;8174;43.550;5.206;2022-09-13T05:58:26;11.95;;;5.32;;
16137;SDS011;8174;43.550;5.206;2022-09-13T06:00:54;9.80;;;4.80;;
16137;SDS011;8174;43.550;5.206;2022-09-13T06:03:23;10.98;;;4.82;;
16137;SDS011;8174;43.550;5.206;2022-09-13T06:05:53;10.43;;;5.55;;
16137;SDS011;8174;43.550;5.206;2022-09-13T06:08:21;9.15;;;5.88;;
16137;SDS011;8174;43.550;5.206;2022-09-13T06:10:55;7.07;;;4.78;;
16137;SDS011;8174;43.550;5.206;2022-09-13T06:13:22;9.55;;;4.60;;
16137;SDS011;8174;43.550;5.206;2022-09-13T06:15:50;10.02;;;4.72;;
16137;SDS011;8174;43.550;5.206;2022-09-13T06:18:17;9.65;;;4.70;;
16137;SDS011;8174;43.550;5.206;2022-09-13T06:20:46;7.18;;;4.63;;
16137;SDS011;8174;43.550;5.206;2022-09-13T06:23:14;11.98;;;5.00;;
16137;SDS011;8174;43.550;5.206;2022-09-13T06:25:42;9.32;;;4.78;;
16137;SDS011;8174;43.550;5.206;2022-09-13T06:28:09;9.93;;;4.47;;
16137;SDS011;8174;43.550;5.206;2022-09-13T06:30:37;8.98;;;4.70;;
16137;SDS011;8174;43.550;5.206;2022-09-13T06:33:04;12.20;;;6.10;;
16137;SDS011;8174;43.550;5.206;2022-09-13T06:35:32;14.13;;;5.38;;
16137;SDS011;8174;43.550;5.206;2022-09-13T06:38:00;8.93;;;4.70;;
16137;SDS011;8174;43.550;5.206;2022-09-13T06:40:28;10.57;;;4.15;;
16137;SDS011;8174;43.550;5.206;2022-09-13T06:42:56;11.52;;;4.80;;
16137;SDS011;8174;43.550;5.206;2022-09-13T06:45:24;10.65;;;5.18;;
16137;SDS011;8174;43.550;5.206;2022-09-13T06:47:52;8.85;;;4.30;;
16137;SDS011;8174;43.550;5.206;2022-09-13T06:50:20;10.30;;;4.38;;
16137;SDS011;8174;43.550;5.206;2022-09-13T06:52:47;6.10;;;3.70;;
16137;SDS011;8174;43.550;5.206;2022-09-13T06:55:17;10.35;;;4.72;;
16137;SDS011;8174;43.550;5.206;2022-09-13T06:57:44;8.95;;;5.55;;
16137;SDS011;8174;43.550;5.206;2022-09-13T07:00:12;9.35;;;4.57;;
16137;SDS011;8174;43.550;5.206;2022-09-13T07:02:40;8.57;;;4.40;;
16137;SDS011;8174;43.550;5.206;2022-09-13T07:05:07;6.72;;;4.05;;
16137;SDS011;8174;43.550;5.206;2022-09-13T07:07:35;9.38;;;4.40;;
16137;SDS011;8174;43.550;5.206;2022-09-13T07:10:04;8.98;;;3.78;;
16137;SDS011;8174;43.550;5.206;2022-09-13T07:12:36;7.88;;;4.35;;
16137;SDS011;8174;43.550;5.206;2022-09-13T07:15:04;6.28;;;3.90;;
16137;SDS011;8174;43.550;5.206;2022-09-13T07:17:31;6.25;;;3.33;;
16137;SDS011;8174;43.550;5.206;2022-09-13T07:19:59;6.90;;;3.60;;
16137;SDS011;8174;43.550;5.206;2022-09-13T07:22:26;6.93;;;3.30;;
16137;SDS011;8174;43.550;5.206;2022-09-13T07:24:54;9.27;;;3.20;;
16137;SDS011;8174;43.550;5.206;2022-09-13T07:27:21;6.90;;;3.03;;
16137;SDS011;8174;43.550;5.206;2022-09-13T07:29:50;7.78;;;3.10;;
16137;SDS011;8174;43.550;5.206;2022-09-13T07:32:18;10.20;;;3.28;;
16137;SDS011;8174;43.550;5.206;2022-09-13T07:34:47;6.97;;;2.70;;
16137;SDS011;8174;43.550;5.206;2022-09-13T07:37:15;5.90;;;2.63;;
16137;SDS011;8174;43.550;5.206;2022-09-13T07:39:42;8.15;;;2.53;;
16137;SDS011;8174;43.550;5.206;2022-09-13T07:42:10;6.97;;;2.88;;
16137;SDS011;8174;43.550;5.206;2022-09-13T07:44:37;5.15;;;2.45;;
16137;SDS011;8174;43.550;5.206;2022-09-13T07:47:06;11.57;;;2.63;;
16137;SDS011;8174;43.550;5.206;2022-09-13T07:49:34;7.03;;;2.60;;
16137;SDS011;8174;43.550;5.206;2022-09-13T07:52:02;8.18;;;2.78;;
16137;SDS011;8174;43.550;5.206;2022-09-13T07:54:29;6.65;;;2.50;;
16137;SDS011;8174;43.550;5.206;2022-09-13T07:56:58;7.55;;;2.38;;
16137;SDS011;8174;43.550;5.206;2022-09-13T07:59:26;9.35;;;2.60;;
16137;SDS011;8174;43.550;5.206;2022-09-13T08:01:54;5.07;;;2.50;;
16137;SDS011;8174;43.550;5.206;2022-09-13T08:04:24;6.18;;;2.33;;
16137;SDS011;8174;43.550;5.206;2022-09-13T08:06:52;5.13;;;2.58;;
16137;SDS011;8174;43.550;5.206;2022-09-13T08:09:20;6.30;;;2.30;;
16137;SDS011;8174;43.550;5.206;2022-09-13T08:11:47;5.20;;;2.30;;
16137;SDS011;8174;43.550;5.206;2022-09-13T08:14:17;4.35;;;2.22;;
16137;SDS011;8174;43.550;5.206;2022-09-13T08:16:45;9.63;;;2.08;;
16137;SDS011;8174;43.550;5.206;2022-09-13T08:19:13;5.78;;;2.30;;
16137;SDS011;8174;43.550;5.206;2022-09-13T08:21:43;5.32;;;2.80;;
16137;SDS011;8174;43.550;5.206;2022-09-13T08:24:12;13.38;;;6.50;;
16137;SDS011;8174;43.550;5.206;2022-09-13T08:26:40;4.47;;;2.75;;
16137;SDS011;8174;43.550;5.206;2022-09-13T08:29:09;9.25;;;3.40;;
16137;SDS011;8174;43.550;5.206;2022-09-13T08:31:37;6.45;;;2.55;;
16137;SDS011;8174;43.550;5.206;2022-09-13T08:34:06;6.80;;;3.53;;
16137;SDS011;8174;43.550;5.206;2022-09-13T08:36:33;4.07;;;2.30;;
16137;SDS011;8174;43.550;5.206;2022-09-13T08:39:03;9.27;;;2.40;;
16137;SDS011;8174;43.550;5.206;2022-09-13T08:41:37;7.53;;;3.55;;
16137;SDS011;8174;43.550;5.206;2022-09-13T08:44:15;10.20;;;5.20;;
16137;SDS011;8174;43.550;5.206;2022-09-13T08:46:47;8.63;;;4.30;;
16137;SDS011;8174;43.550;5.206;2022-09-13T08:49:16;7.97;;;4.55;;
16137;SDS011;8174;43.550;5.206;2022-09-13T08:51:47;5.97;;;2.10;;
16137;SDS011;8174;43.550;5.206;2022-09-13T08:54:18;9.52;;;4.72;;
16137;SDS011;8174;43.550;5.206;2022-09-13T08:56:48;7.97;;;2.53;;
16137;SDS011;8174;43.550;5.206;2022-09-13T08:59:23;4.85;;;1.80;;
16137;SDS011;8174;43.550;5.206;2022-09-13T09:01:54;4.40;;;2.25;;
16137;SDS011;8174;43.550;5.206;2022-09-13T09:04:35;5.30;;;2.30;;
16137;SDS011;8174;43.550;5.206;2022-09-13T09:07:05;6.10;;;1.80;;
16137;SDS011;8174;43.550;5.206;2022-09-13T09:09:39;5.15;;;2.20;;
16137;SDS011;8174;43.550;5.206;2022-09-13T09:12:10;7.90;;;2.20;;
16137;SDS011;8174;43.550;5.206;2022-09-13T09:14:41;4.32;;;2.00;;
16137;SDS011;8174;43.550;5.206;2022-09-13T09:17:11;4.85;;;2.20;;
16137;SDS011;8174;43.550;5.206;2022-09-13T09:19:40;8.88;;;2.00;;
16137;SDS011;8174;43.550;5.206;2022-09-13T09:22:10;5.30;;;1.73;;
16137;SDS011;8174;43.550;5.206;2022-09-13T09:24:43;4.20;;;2.17;;
16137;SDS011;8174;43.550;5.206;2022-09-13T09:27:12;11.25;;;5.22;;
16137;SDS011;8174;43.550;5.206;2022-09-13T09:29:41;7.15;;;4.22;;
16137;SDS011;8174;43.550;5.206;2022-09-13T09:32:18;6.47;;;2.58;;
16137;SDS011;8174;43.550;5.206;2022-09-13T09:34:50;5.95;;;3.63;;
16137;SDS011;8174;43.550;5.206;2022-09-13T09:37:20;6.45;;;3.80;;
16137;SDS011;8174;43.550;5.206;2022-09-13T09:39:50;5.72;;;4.32;;
16137;SDS011;8174;43.550;5.206;2022-09-13T09:42:18;7.22;;;3.47;;
16137;SDS011;8174;43.550;5.206;2022-09-13T09:44:47;5.35;;;2.40;;
16137;SDS011;8174;43.550;5.206;2022-09-13T09:47:18;4.63;;;3.15;;
16137;SDS011;8174;43.550;5.206;2022-09-13T09:49:46;5.18;;;3.38;;
16137;SDS011;8174;43.550;5.206;2022-09-13T09:52:34;5.72;;;2.90;;
16137;SDS011;8174;43.550;5.206;2022-09-13T09:55:11;8.98;;;3.00;;
16137;SDS011;8174;43.550;5.206;2022-09-13T09:57:50;6.15;;;2.75;;
16137;SDS011;8174;43.550;5.206;2022-09-13T10:00:19;6.13;;;2.20;;
16137;SDS011;8174;43.550;5.206;2022-09-13T10:02:47;5.32;;;2.03;;
16137;SDS011;8174;43.550;5.206;2022-09-13T10:05:17;4.97;;;1.80;;
16137;SDS011;8174;43.550;5.206;2022-09-13T10:07:49;4.38;;;1.80;;
16137;SDS011;8174;43.550;5.206;2022-09-13T10:10:20;6.15;;;1.70;;
16137;SDS011;8174;43.550;5.206;2022-09-13T10:12:49;5.05;;;1.70;;
16137;SDS011;8174;43.550;5.206;2022-09-13T10:15:18;7.22;;;2.08;;
16137;SDS011;8174;43.550;5.206;2022-09-13T10:18:13;5.85;;;1.80;;
16137;SDS011;8174;43.550;5.206;2022-09-13T10:20:41;3.28;;;1.40;;
16137;SDS011;8174;43.550;5.206;2022-09-13T10:23:17;5.53;;;1.88;;
16137;SDS011;8174;43.550;5.206;2022-09-13T10:25:55;2.30;;;1.77;;
16137;SDS011;8174;43.550;5.206;2022-09-13T10:28:23;4.45;;;1.65;;
16137;SDS011;8174;43.550;5.206;2022-09-13T10:30:52;2.50;;;1.75;;
16137;SDS011;8174;43.550;5.206;2022-09-13T10:33:23;3.00;;;1.75;;
16137;SDS011;8174;43.550;5.206;2022-09-13T10:35:52;7.80;;;2.03;;
16137;SDS011;8174;43.550;5.206;2022-09-13T10:38:23;4.47;;;2.15;;
16137;SDS011;8174;43.550;5.206;2022-09-13T10:40:52;6.30;;;2.20;;
16137;SDS011;8174;43.550;5.206;2022-09-13T10:43:21;3.65;;;1.90;;
16137;SDS011;8174;43.550;5.206;2022-09-13T10:45:50;6.35;;;1.80;;
16137;SDS011;8174;43.550;5.206;2022-09-13T10:48:18;7.05;;;1.90;;
16137;SDS011;8174;43.550;5.206;2022-09-13T10:51:02;6.20;;;1.38;;
16137;SDS011;8174;43.550;5.206;2022-09-13T10:53:32;4.45;;;1.75;;
16137;SDS011;8174;43.550;5.206;2022-09-13T10:56:00;4.70;;;1.50;;
16137;SDS011;8174;43.550;5.206;2022-09-13T10:58:30;2.55;;;1.40;;
16137;SDS011;8174;43.550;5.206;2022-09-13T11:03:49;6.57;;;1.60;;
16137;SDS011;8174;43.550;5.206;2022-09-13T11:06:21;5.10;;;1.67;;
16137;SDS011;8174;43.550;5.206;2022-09-13T11:08:55;5.25;;;1.80;;
16137;SDS011;8174;43.550;5.206;2022-09-13T11:11:28;3.90;;;1.40;;
16137;SDS011;8174;43.550;5.206;2022-09-13T11:14:03;5.60;;;1.55;;
16137;SDS011;8174;43.550;5.206;2022-09-13T11:16:37;4.07;;;1.70;;
16137;SDS011;8174;43.550;5.206;2022-09-13T11:19:11;3.90;;;1.40;;
16137;SDS011;8174;43.550;5.206;2022-09-13T11:21:47;4.32;;;1.52;;
16137;SDS011;8174;43.550;5.206;2022-09-13T11:24:28;6.88;;;1.60;;
16137;SDS011;8174;43.550;5.206;2022-09-13T11:27:01;3.47;;;1.30;;
16137;SDS011;8174;43.550;5.206;2022-09-13T11:29:45;1.92;;;1.38;;
16137;SDS011;8174;43.550;5.206;2022-09-13T11:32:21;5.25;;;1.63;;
16137;SDS011;8174;43.550;5.206;2022-09-13T11:34:55;2.85;;;1.33;;
16137;SDS011;8174;43.550;5.206;2022-09-13T11:37:34;3.72;;;1.50;;
16137;SDS011;8174;43.550;5.206;2022-09-13T11:40:22;3.92;;;1.40;;
16137;SDS011;8174;43.550;5.206;2022-09-13T11:42:53;3.85;;;1.55;;
16137;SDS011;8174;43.550;5.206;2022-09-13T11:45:26;5.65;;;1.58;;
16137;SDS011;8174;43.550;5.206;2022-09-13T11:47:57;3.03;;;1.40;;
16137;SDS011;8174;43.550;5.206;2022-09-13T11:50:31;4.82;;;1.40;;
16137;SDS011;8174;43.550;5.206;2022-09-13T11:53:12;2.92;;;1.20;;
16137;SDS011;8174;43.550;5.206;2022-09-13T11:55:41;3.67;;;1.35;;
16137;SDS011;8174;43.550;5.206;2022-09-13T11:58:10;3.88;;;1.50;;
16137;SDS011;8174;43.550;5.206;2022-09-13T12:00:42;4.88;;;1.40;;
16137;SDS011;8174;43.550;5.206;2022-09-13T12:03:12;3.08;;;1.38;;
16137;SDS011;8174;43.550;5.206;2022-09-13T12:05:43;5.10;;;1.40;;
16137;SDS011;8174;43.550;5.206;2022-09-13T12:08:14;2.42;;;1.20;;
16137;SDS011;8174;43.550;5.206;2022-09-13T12:10:45;3.15;;;1.27;;
16137;SDS011;8174;43.550;5.206;2022-09-13T12:13:17;3.42;;;1.63;;
16137;SDS011;8174;43.550;5.206;2022-09-13T12:15:48;4.70;;;1.40;;
16137;SDS011;8174;43.550;5.206;2022-09-13T12:18:18;5.47;;;1.27;;
16137;SDS011;8174;43.550;5.206;2022-09-13T12:20:47;5.47;;;1.58;;
16137;SDS011;8174;43.550;5.206;2022-09-13T12:23:16;2.28;;;1.20;;
16137;SDS011;8174;43.550;5.206;2022-09-13T12:25:47;3.25;;;1.40;;
16137;SDS011;8174;43.550;5.206;2022-09-13T12:28:18;1.98;;;1.13;;
16137;SDS011;8174;43.550;5.206;2022-09-13T12:30:50;2.67;;;1.25;;
16137;SDS011;8174;43.550;5.206;2022-09-13T12:33:18;2.55;;;1.17;;
16137;SDS011;8174;43.550;5.206;2022-09-13T12:35:52;3.17;;;1.17;;
16137;SDS011;8174;43.550;5.206;2022-09-13T12:41:09;4.47;;;1.25;;
16137;SDS011;8174;43.550;5.206;2022-09-13T12:43:47;3.92;;;1.23;;
16137;SDS011;8174;43.550;5.206;2022-09-13T12:46:30;2.80;;;1.35;;
16137;SDS011;8174;43.550;5.206;2022-09-13T12:51:52;3.25;;;1.50;;
16137;SDS011;8174;43.550;5.206;2022-09-13T12:54:45;2.33;;;1.70;;
16137;SDS011;8174;43.550;5.206;2022-09-13T12:57:16;3.83;;;1.30;;
16137;SDS011;8174;43.550;5.206;2022-09-13T12:59:53;2.45;;;1.40;;
16137;SDS011;8174;43.550;5.206;2022-09-13T13:02:30;5.10;;;1.48;;
16137;SDS011;8174;43.550;5.206;2022-09-13T13:04:59;5.18;;;1.42;;
16137;SDS011;8174;43.550;5.206;2022-09-13T13:07:27;5.70;;;1.50;;
16137;SDS011;8174;43.550;5.206;2022-09-13T13:09:56;2.67;;;1.20;;
16137;SDS011;8174;43.550;5.206;2022-09-13T13:12:25;3.60;;;1.27;;
16137;SDS011;8174;43.550;5.206;2022-09-13T13:14:53;2.70;;;1.10;;
16137;SDS011;8174;43.550;5.206;2022-09-13T13:17:39;4.05;;;1.20;;
16137;SDS011;8174;43.550;5.206;2022-09-13T13:23:01;2.67;;;1.08;;
16137;SDS011;8174;43.550;5.206;2022-09-13T13:25:31;7.07;;;2.10;;
16137;SDS011;8174;43.550;5.206;2022-09-13T13:28:02;5.45;;;1.83;;
16137;SDS011;8174;43.550;5.206;2022-09-13T13:30:40;3.28;;;1.27;;
16137;SDS011;8174;43.550;5.206;2022-09-13T13:33:17;4.07;;;1.15;;
16137;SDS011;8174;43.550;5.206;2022-09-13T13:35:45;3.83;;;1.42;;
16137;SDS011;8174;43.550;5.206;2022-09-13T13:38:13;3.22;;;1.15;;
16137;SDS011;8174;43.550;5.206;2022-09-13T13:40:41;3.22;;;1.50;;
16137;SDS011;8174;43.550;5.206;2022-09-13T13:45:55;3.80;;;1.88;;
16137;SDS011;8174;43.550;5.206;2022-09-13T13:51:13;3.92;;;1.30;;
16137;SDS011;8174;43.550;5.206;2022-09-13T13:53:42;2.80;;;1.30;;
16137;SDS011;8174;43.550;5.206;2022-09-13T13:56:17;4.05;;;1.40;;
16137;SDS011;8174;43.550;5.206;2022-09-13T13:58:46;4.10;;;1.30;;
16137;SDS011;8174;43.550;5.206;2022-09-13T14:01:17;3.38;;;1.30;;
16137;SDS011;8174;43.550;5.206;2022-09-13T14:06:32;3.40;;;1.20;;
16137;SDS011;8174;43.550;5.206;2022-09-13T14:09:05;4.35;;;1.33;;
16137;SDS011;8174;43.550;5.206;2022-09-13T14:11:40;2.90;;;1.38;;
16137;SDS011;8174;43.550;5.206;2022-09-13T14:14:25;4.15;;;1.38;;
16137;SDS011;8174;43.550;5.206;2022-09-13T14:16:57;5.57;;;1.40;;
16137;SDS011;8174;43.550;5.206;2022-09-13T14:19:27;3.08;;;1.80;;
16137;SDS011;8174;43.550;5.206;2022-09-13T14:22:15;4.05;;;1.50;;
16137;SDS011;8174;43.550;5.206;2022-09-13T14:24:44;2.92;;;1.48;;
16137;SDS011;8174;43.550;5.206;2022-09-13T14:27:13;4.55;;;1.50;;
16137;SDS011;8174;43.550;5.206;2022-09-13T14:29:43;6.50;;;1.50;;
16137;SDS011;8174;43.550;5.206;2022-09-13T14:32:11;7.05;;;1.52;;
16137;SDS011;8174;43.550;5.206;2022-09-13T14:34:49;2.42;;;1.40;;
16137;SDS011;8174;43.550;5.206;2022-09-13T14:37:19;5.15;;;1.60;;
16137;SDS011;8174;43.550;5.206;2022-09-13T14:39:54;3.30;;;1.40;;
16137;SDS011;8174;43.550;5.206;2022-09-13T14:42:21;2.10;;;1.33;;
16137;SDS011;8174;43.550;5.206;2022-09-13T14:44:49;4.10;;;1.30;;
16137;SDS011;8174;43.550;5.206;2022-09-13T14:47:18;3.10;;;1.40;;
16137;SDS011;8174;43.550;5.206;2022-09-13T14:49:46;3.63;;;1.73;;
16137;SDS011;8174;43.550;5.206;2022-09-13T14:52:16;4.65;;;1.60;;
16137;SDS011;8174;43.550;5.206;2022-09-13T14:54:48;3.15;;;1.30;;
16137;SDS011;8174;43.550;5.206;2022-09-13T14:57:20;3.70;;;1.33;;
16137;SDS011;8174;43.550;5.206;2022-09-13T14:59:49;6.63;;;1.80;;
16137;SDS011;8174;43.550;5.206;2022-09-13T15:02:23;3.78;;;1.40;;
16137;SDS011;8174;43.550;5.206;2022-09-13T15:04:52;5.05;;;1.45;;
16137;SDS011;8174;43.550;5.206;2022-09-13T15:07:21;8.05;;;1.42;;
16137;SDS011;8174;43.550;5.206;2022-09-13T15:09:50;5.38;;;1.42;;
16137;SDS011;8174;43.550;5.206;2022-09-13T15:12:24;4.10;;;1.40;;
16137;SDS011;8174;43.550;5.206;2022-09-13T15:17:49;3.97;;;1.40;;
16137;SDS011;8174;43.550;5.206;2022-09-13T15:20:18;2.83;;;1.45;;
16137;SDS011;8174;43.550;5.206;2022-09-13T15:22:46;5.07;;;1.45;;
16137;SDS011;8174;43.550;5.206;2022-09-13T15:25:17;5.03;;;1.58;;
16137;SDS011;8174;43.550;5.206;2022-09-13T15:27:46;5.00;;;1.70;;
16137;SDS011;8174;43.550;5.206;2022-09-13T15:30:22;6.00;;;1.50;;
16137;SDS011;8174;43.550;5.206;2022-09-13T15:33:02;3.10;;;1.50;;
16137;SDS011;8174;43.550;5.206;2022-09-13T15:35:33;4.38;;;1.80;;
16137;SDS011;8174;43.550;5.206;2022-09-13T15:38:06;4.55;;;1.60;;
16137;SDS011;8174;43.550;5.206;2022-09-13T15:40:43;6.55;;;1.75;;
16137;SDS011;8174;43.550;5.206;2022-09-13T15:43:11;2.80;;;1.45;;
16137;SDS011;8174;43.550;5.206;2022-09-13T15:45:38;6.50;;;1.60;;
16137;SDS011;8174;43.550;5.206;2022-09-13T15:48:06;4.38;;;1.65;;